createdAt,value
2024-03-09T00:00:20.795Z,2.05
2024-03-09T00:02:38.000Z,2.14
2024-03-09T00:04:55.100Z,2.16
2024-03-09T00:07:12.045Z,2.10
2024-03-09T00:09:28.976Z,2.04
2024-03-09T00:11:45.943Z,2.00
2024-03-09T00:14:02.921Z,1.99
2024-03-09T00:16:19.864Z,1.99
2024-03-09T00:18:44.154Z,1.98
2024-03-09T00:21:02.506Z,1.99
2024-03-09T00:23:19.467Z,2.00
2024-03-09T00:25:36.432Z,2.05
2024-03-09T00:27:53.453Z,2.10
2024-03-09T00:30:10.549Z,2.11
2024-03-09T00:32:27.554Z,2.13
2024-03-09T00:34:44.561Z,2.14
2024-03-09T00:37:01.501Z,2.12
2024-03-09T00:39:18.445Z,2.11
2024-03-09T00:41:35.333Z,2.10
2024-03-09T00:43:52.251Z,2.08
2024-03-09T00:46:09.138Z,2.10
2024-03-09T00:48:26.006Z,2.11
2024-03-09T00:50:42.897Z,2.13
2024-03-09T00:52:59.885Z,2.16
2024-03-09T00:55:17.070Z,2.18
2024-03-09T00:57:34.053Z,2.19
2024-03-09T00:59:50.989Z,2.18
2024-03-09T01:02:07.888Z,2.16
2024-03-09T01:04:24.838Z,2.15
2024-03-09T01:06:41.830Z,2.14
2024-03-09T01:08:58.856Z,2.14
2024-03-09T01:11:15.828Z,2.17
2024-03-09T01:13:32.793Z,2.19
2024-03-09T01:15:49.698Z,2.23
2024-03-09T01:18:06.662Z,2.25
2024-03-09T01:20:23.635Z,2.26
2024-03-09T01:22:40.621Z,2.28
2024-03-09T01:24:57.582Z,2.30
2024-03-09T01:27:14.592Z,2.31
2024-03-09T01:29:31.474Z,2.32
2024-03-09T01:31:48.608Z,2.31
2024-03-09T01:34:05.513Z,2.30
2024-03-09T01:36:22.430Z,2.31
2024-03-09T01:38:39.279Z,2.35
2024-03-09T01:40:56.282Z,2.39
2024-03-09T01:43:13.208Z,2.40
2024-03-09T01:45:30.155Z,2.42
2024-03-09T01:47:47.537Z,2.42
2024-03-09T01:50:04.516Z,2.45
2024-03-09T01:52:21.538Z,2.54
2024-03-09T01:54:39.876Z,2.57
2024-03-09T01:56:58.218Z,2.59
2024-03-09T01:59:15.224Z,2.59
2024-03-09T02:01:32.230Z,2.57
2024-03-09T02:03:49.179Z,2.53
2024-03-09T02:06:06.142Z,2.56
2024-03-09T02:08:22.991Z,2.61
2024-03-09T02:10:40.112Z,2.64
2024-03-09T02:12:57.214Z,2.62
2024-03-09T02:15:14.249Z,2.64
2024-03-09T02:17:31.232Z,2.63
2024-03-09T02:19:48.360Z,2.60
2024-03-09T02:22:05.298Z,2.59
2024-03-09T02:24:22.296Z,2.59
2024-03-09T02:26:39.305Z,2.60
2024-03-09T02:28:56.220Z,2.62
2024-03-09T02:31:13.158Z,2.58
2024-03-09T02:33:30.083Z,2.56
2024-03-09T02:35:47.103Z,2.61
2024-03-09T02:38:04.155Z,2.65
2024-03-09T02:40:21.115Z,2.63
2024-03-09T02:42:38.347Z,2.60
2024-03-09T02:44:55.241Z,2.61
2024-03-09T02:47:12.412Z,2.61
2024-03-09T02:49:29.417Z,2.68
2024-03-09T02:51:46.337Z,2.68
2024-03-09T02:54:03.270Z,2.68
2024-03-09T02:56:20.163Z,2.64
2024-03-09T02:58:37.051Z,2.64
2024-03-09T03:00:53.984Z,2.63
2024-03-09T03:03:10.899Z,2.61
2024-03-09T03:05:27.939Z,2.60
2024-03-09T03:07:44.984Z,2.58
2024-03-09T03:10:01.967Z,2.59
2024-03-09T03:12:18.867Z,2.62
2024-03-09T03:14:35.771Z,2.63
2024-03-09T03:16:52.817Z,2.61
2024-03-09T03:19:09.745Z,2.56
2024-03-09T03:21:26.678Z,2.50
2024-03-09T03:23:43.626Z,2.47
2024-03-09T03:26:00.576Z,2.44
2024-03-09T03:28:17.458Z,2.42
2024-03-09T03:30:34.379Z,2.40
2024-03-09T03:32:51.391Z,2.41
2024-03-09T03:35:08.631Z,2.43
2024-03-09T03:37:25.737Z,2.42
2024-03-09T03:39:42.673Z,2.42
2024-03-09T03:41:59.623Z,2.45
2024-03-09T03:44:16.559Z,2.44
2024-03-09T03:46:33.446Z,2.41
2024-03-09T03:48:50.374Z,2.39
2024-03-09T03:51:07.450Z,2.37
2024-03-09T03:53:24.358Z,2.36
2024-03-09T03:55:41.395Z,2.36
2024-03-09T03:57:58.270Z,2.40
2024-03-09T04:00:15.178Z,2.38
2024-03-09T04:02:32.094Z,2.35
2024-03-09T04:04:49.167Z,2.30
2024-03-09T04:07:06.157Z,2.29
2024-03-09T04:09:23.014Z,2.32
2024-03-09T04:11:40.204Z,2.34
2024-03-09T04:13:57.269Z,2.34
2024-03-09T04:16:14.232Z,2.33
2024-03-09T04:18:31.274Z,2.30
2024-03-09T04:20:48.244Z,2.27
2024-03-09T04:23:05.208Z,2.27
2024-03-09T04:25:22.136Z,2.26
2024-03-09T04:27:39.065Z,2.25
2024-03-09T04:29:57.212Z,2.25
2024-03-09T04:32:14.133Z,2.27
2024-03-09T04:34:31.157Z,2.26
2024-03-09T04:36:48.164Z,2.23
2024-03-09T04:39:05.116Z,2.19
2024-03-09T04:41:22.047Z,2.17
2024-03-09T04:43:39.302Z,2.16
2024-03-09T04:45:56.474Z,2.13
2024-03-09T04:48:13.386Z,2.14
2024-03-09T04:50:30.356Z,2.13
2024-03-09T04:52:47.376Z,2.13
2024-03-09T04:55:04.339Z,2.09
2024-03-09T04:57:21.286Z,2.06
2024-03-09T04:59:38.317Z,2.02
2024-03-09T05:01:55.366Z,2.05
2024-03-09T05:04:12.426Z,2.04
2024-03-09T05:06:29.315Z,2.04
2024-03-09T05:08:46.206Z,1.97
2024-03-09T05:11:03.170Z,1.98
2024-03-09T05:13:20.046Z,1.98
2024-03-09T05:15:37.640Z,2.00
2024-03-09T05:17:55.489Z,2.01
2024-03-09T05:20:12.549Z,2.01
2024-03-09T05:22:29.503Z,1.97
2024-03-09T05:24:46.422Z,1.96
2024-03-09T05:27:03.371Z,1.96
2024-03-09T05:29:20.347Z,1.97
2024-03-09T05:31:37.339Z,1.96
2024-03-09T05:46:45.980Z,1.81
2024-03-09T05:49:02.962Z,1.79
2024-03-09T05:51:19.825Z,1.79
2024-03-09T05:53:36.753Z,1.82
2024-03-09T05:55:53.645Z,1.80
2024-03-09T05:58:10.613Z,1.76
2024-03-09T06:00:27.638Z,1.79
2024-03-09T06:02:47.188Z,1.84
2024-03-09T06:05:04.732Z,1.79
2024-03-09T06:07:21.664Z,1.77
2024-03-09T06:09:38.654Z,1.78
2024-03-09T06:11:55.792Z,1.81
2024-03-09T06:14:12.842Z,1.83
2024-03-09T06:16:29.803Z,1.80
2024-03-09T06:18:46.776Z,1.82
2024-03-09T06:21:03.680Z,1.85
2024-03-09T06:23:20.873Z,1.86
2024-03-09T06:25:37.934Z,1.87
2024-03-09T06:27:55.038Z,1.87
2024-03-09T06:30:12.051Z,1.85
2024-03-09T06:32:29.204Z,1.86
2024-03-09T06:34:46.161Z,1.90
2024-03-09T06:37:03.104Z,1.92
2024-03-09T06:39:20.038Z,1.89
2024-03-09T06:41:37.125Z,1.88
2024-03-09T06:43:54.110Z,1.86
2024-03-09T06:46:11.107Z,1.88
2024-03-09T06:48:28.075Z,1.91
2024-03-09T06:50:44.933Z,1.89
2024-03-09T06:53:01.948Z,1.87
2024-03-09T06:55:18.962Z,1.85
2024-03-09T06:57:36.073Z,1.86
2024-03-09T06:59:53.027Z,1.92
2024-03-09T07:02:09.940Z,1.94
2024-03-09T07:04:27.130Z,2.00
2024-03-09T07:06:44.236Z,2.07
2024-03-09T07:09:01.211Z,2.09
2024-03-09T07:11:20.470Z,2.10
2024-03-09T07:13:37.687Z,2.11
2024-03-09T07:15:54.964Z,2.18
2024-03-09T07:18:13.161Z,2.25
2024-03-09T07:20:30.702Z,2.29
2024-03-09T07:22:48.085Z,2.34
2024-03-09T07:25:05.014Z,2.37
2024-03-09T07:27:21.949Z,2.36
2024-03-09T07:29:38.893Z,2.35
2024-03-09T07:31:55.861Z,2.36
2024-03-09T07:34:12.800Z,2.37
2024-03-09T07:36:29.692Z,2.40
2024-03-09T07:38:46.781Z,2.44
2024-03-09T07:41:03.650Z,2.49
2024-03-09T07:43:20.712Z,2.60
2024-03-09T07:45:37.599Z,2.73
2024-03-09T07:47:54.984Z,2.91
2024-03-09T07:50:12.034Z,3.04
2024-03-09T07:52:29.054Z,3.20
2024-03-09T07:54:46.132Z,3.29
2024-03-09T07:57:03.076Z,3.34
2024-03-09T07:59:20.129Z,3.36
2024-03-09T08:01:37.334Z,3.35
2024-03-09T08:03:54.288Z,3.29
2024-03-09T08:06:11.348Z,3.28
2024-03-09T08:08:28.317Z,3.26
2024-03-09T08:10:45.283Z,3.26
2024-03-09T08:13:02.240Z,3.29
2024-03-09T08:15:19.302Z,3.27
2024-03-09T08:17:36.492Z,3.29
2024-03-09T08:19:53.862Z,3.32
2024-03-09T08:22:10.726Z,3.34
2024-03-09T08:24:27.562Z,3.41
2024-03-09T08:26:44.606Z,3.51
2024-03-09T08:29:01.669Z,3.64
2024-03-09T08:31:18.834Z,3.85
2024-03-09T08:33:35.688Z,4.11
2024-03-09T08:35:52.558Z,4.36
2024-03-09T08:38:09.571Z,4.59
2024-03-09T08:40:26.554Z,4.87
2024-03-09T08:42:43.486Z,5.06
2024-03-09T08:45:00.523Z,5.26
2024-03-09T08:47:17.499Z,5.47
2024-03-09T08:49:34.485Z,5.73
2024-03-09T08:51:51.438Z,5.92
2024-03-09T08:54:08.409Z,6.10
2024-03-09T08:56:25.304Z,6.21
2024-03-09T08:58:42.322Z,6.40
2024-03-09T09:00:59.258Z,6.52
2024-03-09T09:03:16.301Z,6.58
2024-03-09T09:05:33.194Z,6.83
2024-03-09T09:07:51.270Z,7.04
2024-03-09T09:10:09.438Z,7.09
2024-03-09T09:12:26.528Z,7.32
2024-03-09T09:14:43.446Z,7.52
2024-03-09T09:17:00.457Z,7.60
2024-03-09T09:19:17.391Z,7.77
2024-03-09T09:21:34.313Z,8.01
2024-03-09T09:23:51.532Z,8.17
2024-03-09T09:26:08.452Z,8.29
2024-03-09T09:28:25.481Z,8.40
2024-03-09T09:30:42.530Z,8.59
2024-03-09T09:32:59.538Z,8.52
2024-03-09T09:35:16.474Z,8.60
2024-03-09T09:37:33.352Z,8.86
2024-03-09T09:39:50.413Z,8.86
2024-03-09T09:42:07.346Z,9.02
2024-03-09T09:44:24.327Z,9.15
2024-03-09T09:46:41.384Z,9.21
2024-03-09T09:48:58.280Z,9.19
2024-03-09T09:51:15.193Z,9.36
2024-03-09T09:53:32.225Z,9.29
2024-03-09T09:55:49.180Z,9.32
2024-03-09T09:58:06.166Z,9.45
2024-03-09T10:00:23.074Z,9.72
2024-03-09T10:02:40.006Z,9.89
2024-03-09T10:04:57.155Z,10.09
2024-03-09T10:07:14.086Z,10.14
2024-03-09T10:09:32.484Z,10.28
2024-03-09T10:11:51.306Z,10.24
2024-03-09T10:14:08.316Z,10.36
2024-03-09T10:16:25.233Z,10.48
2024-03-09T10:18:42.370Z,10.60
2024-03-09T10:20:59.364Z,10.69
2024-03-09T10:23:16.357Z,10.75
2024-03-09T10:25:33.258Z,10.71
2024-03-09T10:27:50.217Z,10.76
2024-03-09T10:30:07.259Z,10.90
2024-03-09T10:32:24.258Z,10.84
2024-03-09T10:34:41.308Z,11.04
2024-03-09T10:36:58.210Z,11.04
2024-03-09T10:39:15.248Z,11.22
2024-03-09T10:41:32.192Z,11.34
2024-03-09T10:43:49.170Z,11.39
2024-03-09T10:46:06.130Z,11.49
2024-03-09T10:48:23.073Z,11.56
2024-03-09T10:50:40.400Z,11.71
2024-03-09T10:52:57.286Z,11.72
2024-03-09T10:55:14.381Z,11.61
2024-03-09T10:57:31.353Z,11.23
2024-03-09T10:59:48.453Z,10.86
2024-03-09T11:02:05.507Z,10.52
2024-03-09T11:04:22.523Z,10.37
2024-03-09T11:06:39.570Z,10.32
2024-03-09T11:08:56.514Z,10.34
2024-03-09T11:11:13.479Z,10.39
2024-03-09T11:13:30.449Z,10.36
2024-03-09T11:15:50.281Z,10.48
2024-03-09T11:18:09.044Z,10.65
2024-03-09T11:20:26.049Z,10.99
2024-03-09T11:22:43.023Z,11.35
2024-03-09T11:25:00.028Z,11.62
2024-03-09T11:27:16.926Z,11.98
2024-03-09T11:29:33.823Z,12.15
2024-03-09T11:31:50.806Z,12.35
2024-03-09T11:34:07.818Z,12.49
2024-03-09T11:36:25.053Z,12.64
2024-03-09T11:38:41.949Z,12.66
2024-03-09T11:40:59.021Z,12.78
2024-03-09T11:43:16.294Z,12.85
2024-03-09T11:45:33.227Z,12.86
2024-03-09T11:47:50.102Z,12.86
2024-03-09T11:50:07.051Z,13.00
2024-03-09T11:52:24.001Z,12.74
2024-03-09T11:54:40.919Z,12.92
2024-03-09T11:56:58.048Z,13.18
2024-03-09T11:59:15.115Z,13.43
2024-03-09T12:01:32.451Z,13.55
2024-03-09T12:03:49.417Z,13.82
2024-03-09T12:06:06.274Z,13.77
2024-03-09T12:08:23.333Z,13.89
2024-03-09T12:10:40.503Z,13.75
2024-03-09T12:12:57.441Z,13.93
2024-03-09T12:15:14.525Z,14.09
2024-03-09T12:17:31.483Z,14.16
2024-03-09T12:19:48.442Z,14.36
2024-03-09T12:22:05.606Z,14.26
2024-03-09T12:24:22.451Z,14.42
2024-03-09T12:26:39.322Z,14.65
2024-03-09T12:28:56.536Z,14.54
2024-03-09T12:31:13.642Z,14.73
2024-03-09T12:33:30.650Z,14.44
2024-03-09T12:35:47.684Z,14.40
2024-03-09T12:38:04.570Z,14.56
2024-03-09T12:40:21.871Z,14.43
2024-03-09T12:42:38.782Z,14.47
2024-03-09T12:44:55.715Z,14.48
2024-03-09T12:47:12.729Z,14.29
2024-03-09T12:49:29.676Z,14.15
2024-03-09T12:51:46.649Z,14.14
2024-03-09T12:54:03.653Z,14.07
2024-03-09T12:56:20.642Z,13.91
2024-03-09T12:58:37.796Z,13.86
2024-03-09T13:00:54.745Z,13.97
2024-03-09T13:03:11.686Z,13.95
2024-03-09T13:05:28.743Z,14.10
2024-03-09T13:07:45.671Z,14.23
2024-03-09T13:10:05.363Z,14.17
2024-03-09T13:12:23.828Z,13.97
2024-03-09T13:14:40.865Z,13.84
2024-03-09T13:16:57.851Z,13.87
2024-03-09T13:19:14.849Z,13.74
2024-03-09T13:21:31.838Z,13.60
2024-03-09T13:23:48.804Z,13.46
2024-03-09T13:26:05.779Z,13.36
2024-03-09T13:28:22.822Z,13.22
2024-03-09T13:30:39.715Z,13.13
2024-03-09T13:32:56.677Z,13.13
2024-03-09T13:35:13.681Z,13.07
2024-03-09T13:37:30.639Z,13.14
2024-03-09T13:39:47.579Z,13.19
2024-03-09T13:42:04.570Z,13.23
2024-03-09T13:44:21.614Z,13.13
2024-03-09T13:46:38.654Z,13.25
2024-03-09T13:48:55.584Z,13.12
2024-03-09T13:51:12.677Z,13.04
2024-03-09T13:53:29.689Z,12.96
2024-03-09T13:55:46.653Z,12.83
2024-03-09T13:58:03.608Z,12.84
2024-03-09T14:00:20.629Z,12.91
2024-03-09T14:02:37.679Z,12.89
2024-03-09T14:04:54.728Z,12.85
2024-03-09T14:07:11.696Z,12.76
2024-03-09T14:09:28.625Z,12.76
2024-03-09T14:11:45.840Z,12.79
2024-03-09T14:14:02.870Z,12.81
2024-03-09T14:16:24.378Z,12.79
2024-03-09T14:18:43.861Z,12.76
2024-03-09T14:21:00.771Z,12.64
2024-03-09T14:23:17.804Z,12.69
2024-03-09T14:25:34.942Z,12.65
2024-03-09T14:27:52.159Z,12.53
2024-03-09T14:30:09.104Z,12.50
2024-03-09T14:32:26.068Z,12.45
2024-03-09T14:34:43.160Z,12.45
2024-03-09T14:37:00.228Z,12.37
2024-03-09T14:39:17.551Z,12.28
2024-03-09T14:41:34.984Z,12.24
2024-03-09T14:43:51.880Z,12.27
2024-03-09T14:46:09.024Z,12.30
2024-03-09T14:48:25.914Z,12.30
2024-03-09T14:50:42.856Z,12.27
2024-03-09T14:52:59.773Z,12.26
2024-03-09T14:55:17.060Z,12.25
2024-03-09T14:57:33.967Z,12.22
2024-03-09T14:59:50.938Z,12.22
2024-03-09T15:02:07.961Z,12.20
2024-03-09T15:04:25.002Z,12.24
2024-03-09T15:06:41.987Z,12.18
2024-03-09T15:08:58.935Z,12.08
2024-03-09T15:11:16.414Z,12.07
2024-03-09T15:13:33.520Z,12.05
2024-03-09T15:15:50.528Z,12.01
2024-03-09T15:18:07.826Z,12.01
2024-03-09T15:20:26.909Z,11.94
2024-03-09T15:22:44.865Z,11.88
2024-03-09T15:25:01.849Z,11.88
2024-03-09T15:27:18.873Z,11.83
2024-03-09T15:29:35.848Z,11.81
2024-03-09T15:31:52.787Z,11.78
2024-03-09T15:34:09.719Z,11.77
2024-03-09T15:36:26.759Z,11.73
2024-03-09T15:38:43.855Z,11.67
2024-03-09T15:41:01.032Z,11.64
2024-03-09T15:43:18.028Z,11.58
2024-03-09T15:45:34.911Z,11.54
2024-03-09T15:47:51.868Z,11.52
2024-03-09T15:50:08.962Z,11.48
2024-03-09T15:52:25.945Z,11.43
2024-03-09T15:54:42.871Z,11.39
2024-03-09T15:56:59.812Z,11.34
2024-03-09T15:59:16.871Z,11.33
2024-03-09T16:01:33.917Z,11.27
2024-03-09T16:03:50.860Z,11.20
2024-03-09T16:06:07.808Z,11.15
2024-03-09T16:08:24.834Z,11.11
2024-03-09T16:10:41.991Z,11.04
2024-03-09T16:12:59.049Z,10.99
2024-03-09T16:15:16.104Z,10.95
2024-03-09T16:17:33.101Z,10.91
2024-03-09T16:19:50.060Z,10.85
2024-03-09T16:22:07.027Z,10.78
2024-03-09T16:24:23.970Z,10.74
2024-03-09T16:26:40.859Z,10.72
2024-03-09T16:28:57.807Z,10.72
2024-03-09T16:31:14.759Z,10.72
2024-03-09T16:33:31.709Z,10.69
2024-03-09T16:35:49.551Z,10.65
2024-03-09T16:38:07.019Z,10.62
2024-03-09T16:40:23.960Z,10.59
2024-03-09T16:42:40.950Z,10.56
2024-03-09T16:44:57.889Z,10.52
2024-03-09T16:47:14.814Z,10.48
2024-03-09T16:49:34.019Z,10.44
2024-03-09T16:51:51.169Z,10.41
2024-03-09T16:54:08.215Z,10.35
2024-03-09T16:56:25.353Z,10.30
2024-03-09T16:58:42.457Z,10.21
2024-03-09T17:00:59.555Z,10.14
2024-03-09T17:03:16.567Z,10.08
2024-03-09T17:05:33.478Z,10.01
2024-03-09T17:07:50.472Z,9.94
2024-03-09T17:10:07.442Z,9.88
2024-03-09T17:12:24.431Z,9.82
2024-03-09T17:14:41.381Z,9.76
2024-03-09T17:16:58.360Z,9.75
2024-03-09T17:19:15.266Z,9.70
2024-03-09T17:21:32.157Z,9.62
2024-03-09T17:23:49.090Z,9.52
2024-03-09T17:26:06.084Z,9.47
2024-03-09T17:28:23.093Z,9.43
2024-03-09T17:30:40.031Z,9.39
2024-03-09T17:32:57.341Z,9.31
2024-03-09T17:35:14.396Z,9.27
2024-03-09T17:37:31.476Z,9.24
2024-03-09T17:39:48.376Z,9.16
2024-03-09T17:42:05.330Z,9.11
2024-03-09T17:44:22.326Z,9.06
2024-03-09T17:46:39.578Z,9.02
2024-03-09T17:48:56.556Z,9.00
2024-03-09T17:51:13.479Z,8.98
2024-03-09T17:53:30.475Z,8.92
2024-03-09T17:55:47.471Z,8.88
2024-03-09T17:58:04.415Z,8.82
2024-03-09T18:00:21.529Z,8.75
2024-03-09T18:02:38.535Z,8.74
2024-03-09T18:04:55.449Z,8.70
2024-03-09T18:07:12.397Z,8.67
2024-03-09T18:09:29.345Z,8.66
2024-03-09T18:11:46.402Z,8.60
2024-03-09T18:14:03.377Z,8.54
2024-03-09T18:16:20.370Z,8.50
2024-03-09T18:18:37.327Z,8.47
2024-03-09T18:20:54.276Z,8.44
2024-03-09T18:23:11.506Z,8.40
2024-03-09T18:25:28.657Z,8.34
2024-03-09T18:27:45.575Z,8.31
2024-03-09T18:30:02.580Z,8.32
2024-03-09T18:32:19.527Z,8.29
2024-03-09T18:34:36.394Z,8.29
2024-03-09T18:36:53.322Z,8.23
2024-03-09T18:39:10.250Z,8.19
2024-03-09T18:41:27.324Z,8.18
2024-03-09T18:43:44.319Z,8.14
2024-03-09T18:46:01.270Z,8.10
2024-03-09T18:48:18.250Z,8.07
2024-03-09T18:50:35.295Z,8.05
2024-03-09T18:52:52.369Z,8.03
2024-03-09T18:55:09.290Z,7.98
2024-03-09T18:57:26.294Z,7.96
2024-03-09T18:59:43.550Z,7.94
2024-03-09T19:02:00.877Z,7.92
2024-03-09T19:04:17.949Z,7.90
2024-03-09T19:06:34.919Z,7.89
2024-03-09T19:08:51.851Z,7.87
2024-03-09T19:11:08.898Z,7.85
2024-03-09T19:13:25.875Z,7.80
2024-03-09T19:15:42.836Z,7.78
2024-03-09T19:17:59.882Z,7.76
2024-03-09T19:20:18.926Z,7.76
2024-03-09T19:22:37.379Z,7.74
2024-03-09T19:24:54.260Z,7.70
2024-03-09T19:27:11.199Z,7.66
2024-03-09T19:29:28.183Z,7.61
2024-03-09T19:31:45.198Z,7.56
2024-03-09T19:34:02.171Z,7.53
2024-03-09T19:36:19.456Z,7.45
2024-03-09T19:38:36.380Z,7.36
2024-03-09T19:40:53.442Z,7.32
2024-03-09T19:43:10.420Z,7.27
2024-03-09T19:45:27.400Z,7.23
2024-03-09T19:47:44.312Z,7.11
2024-03-09T19:50:01.228Z,7.10
2024-03-09T19:52:18.255Z,7.02
2024-03-09T19:54:35.145Z,6.95
2024-03-09T19:56:52.308Z,6.93
2024-03-09T19:59:09.647Z,6.89
2024-03-09T20:01:26.616Z,6.83
2024-03-09T20:03:43.675Z,6.75
2024-03-09T20:06:00.678Z,6.72
2024-03-09T20:08:18.238Z,6.71
2024-03-09T20:10:35.245Z,6.70
2024-03-09T20:12:52.324Z,6.68
2024-03-09T20:15:09.261Z,6.62
2024-03-09T20:17:26.327Z,6.59
2024-03-09T20:19:43.562Z,6.54
2024-03-09T20:22:00.487Z,6.51
2024-03-09T20:24:17.561Z,6.48
2024-03-09T20:26:34.476Z,6.47
2024-03-09T20:28:51.442Z,6.47
2024-03-09T20:31:08.433Z,6.47
2024-03-09T20:33:25.407Z,6.42
2024-03-09T20:35:42.379Z,6.36
2024-03-09T20:37:59.357Z,6.31
2024-03-09T20:40:16.666Z,6.23
2024-03-09T20:42:33.940Z,6.16
2024-03-09T20:44:50.872Z,6.12
2024-03-09T20:47:07.867Z,6.07
2024-03-09T20:49:24.858Z,5.99
2024-03-09T20:51:41.800Z,5.93
2024-03-09T20:53:58.720Z,5.87
2024-03-09T20:56:15.672Z,5.83
2024-03-09T20:58:32.660Z,5.79
2024-03-09T21:00:49.691Z,5.75
2024-03-09T21:03:06.632Z,5.73
2024-03-09T21:05:23.557Z,5.71
2024-03-09T21:07:40.593Z,5.65
2024-03-09T21:09:57.569Z,5.58
2024-03-09T21:12:14.582Z,5.58
2024-03-09T21:14:31.628Z,5.53
2024-03-09T21:16:50.568Z,5.50
2024-03-09T21:19:07.739Z,5.49
2024-03-09T21:21:24.645Z,5.49
2024-03-09T21:23:41.573Z,5.48
2024-03-09T21:25:58.887Z,5.51
2024-03-09T21:28:15.780Z,5.53
2024-03-09T21:30:32.702Z,5.50
2024-03-09T21:32:49.948Z,5.50
2024-03-09T21:35:06.910Z,5.53
2024-03-09T21:37:23.824Z,5.53
2024-03-09T21:39:40.728Z,5.55
2024-03-09T21:41:57.731Z,5.53
2024-03-09T21:44:14.678Z,5.54
2024-03-09T21:46:31.571Z,5.54
2024-03-09T21:48:48.585Z,5.56
2024-03-09T21:51:08.674Z,5.57
2024-03-09T21:53:26.388Z,5.58
2024-03-09T21:55:43.387Z,5.59
2024-03-09T21:58:00.330Z,5.60
2024-03-09T22:00:17.216Z,5.60
2024-03-09T22:02:34.261Z,5.63
2024-03-09T22:04:51.295Z,5.63
2024-03-09T22:07:08.235Z,5.64
2024-03-09T22:09:25.177Z,5.64
2024-03-09T22:11:42.215Z,5.63
2024-03-09T22:13:59.260Z,5.61
2024-03-09T22:16:16.219Z,5.61
2024-03-09T22:18:33.076Z,5.62
2024-03-09T22:20:50.034Z,5.64
2024-03-09T22:23:07.151Z,5.64
2024-03-09T22:25:24.110Z,5.65
2024-03-09T22:27:40.969Z,5.65
2024-03-09T22:29:57.867Z,5.64
2024-03-09T22:32:14.796Z,5.63
2024-03-09T22:34:31.736Z,5.65
2024-03-09T22:36:48.658Z,5.64
2024-03-09T22:39:05.642Z,5.67
2024-03-09T22:41:22.616Z,5.67
2024-03-09T22:43:39.702Z,5.67
2024-03-09T22:45:56.628Z,5.67
2024-03-09T22:48:13.621Z,5.66
2024-03-09T22:50:30.599Z,5.67
2024-03-09T22:52:47.578Z,5.68
2024-03-09T22:55:04.502Z,5.70
2024-03-09T22:57:21.376Z,5.70
2024-03-09T22:59:38.320Z,5.70
2024-03-09T23:01:55.266Z,5.66
2024-03-09T23:04:12.182Z,5.66
2024-03-09T23:06:29.150Z,5.70
2024-03-09T23:08:46.077Z,5.72
2024-03-09T23:11:03.095Z,5.73
2024-03-09T23:13:20.011Z,5.73
2024-03-09T23:15:36.960Z,5.71
2024-03-09T23:17:54.248Z,5.67
2024-03-09T23:20:11.325Z,5.70
2024-03-09T23:22:28.251Z,5.70
2024-03-09T23:24:45.160Z,5.70
2024-03-09T23:27:02.148Z,5.69
2024-03-09T23:29:19.212Z,5.70
2024-03-09T23:31:36.226Z,5.68
2024-03-09T23:33:53.163Z,5.71
2024-03-09T23:36:10.023Z,5.73
2024-03-09T23:38:26.953Z,5.74
2024-03-09T23:40:43.921Z,5.73
2024-03-09T23:43:00.920Z,5.72
2024-03-09T23:45:18.223Z,5.73
2024-03-09T23:47:35.364Z,5.72
2024-03-09T23:49:52.393Z,5.71
2024-03-09T23:52:09.317Z,5.70
2024-03-09T23:54:26.245Z,5.74
2024-03-09T23:56:43.228Z,5.75
2024-03-09T23:59:00.196Z,5.76
